AirNav   Everest Fuels
 
 1051 users online  

93MI Herrick Memorial Hospital Heliport
Tecumseh, Michigan, USA

GOING TO TECUMSEH?


FAA INFORMATION EFFECTIVE 18 JUNE 2020

Location

FAA Identifier: 93MI
Lat/Long: 42-00-06.2400N 083-56-16.8300W
42-00.104000N 083-56.280500W
42.0017333,-83.9380083
(estimated)
Elevation: 793 ft. / 242 m (estimated)
Variation: 07W (2015)
Time zone: UTC -4 (UTC -5 during Standard Time)
Zip code: 49286

Heliport Operations

Heliport use: Private use. Permission required prior to landing
Activation date: 02/2010
Control tower: no
ARTCC: CLEVELAND CENTER
FSS: LANSING FLIGHT SERVICE STATION
NOTAMs facility: FDC (NOTAM-D service not available)
Attendance: UNATNDD
Wind indicator: lighted
Segmented circle: no
Lights: SS-SR

Heliport Communications

DETROIT APPROACH: 118.95
DETROIT DEPARTURE: 118.95
WX ASOS at ADG (10 nm SW): 118.375 (517-265-9089)
WX ASOS at ARB (16 nm NE): 134.55 (734-668-7173)

Nearby radio navigation aids

VOR radial/distance  VOR name  Freq  Var
CRLr266/21.6CARLETON VOR/DME115.7003W
DXOr249/28.4DETROIT VOR/DME113.4006W
SVMr215/28.8SALEM VORTAC114.3003W
LFDr101/37.0LITCHFIELD VOR/DME111.2005W

 
NDB name  Hdg/Dist  Freq  Var  ID
TECUMSEH236/3.023906WTCU - -.-. ..-
ADRIAN044/10.127806WADG .- -.. --.
GROSSE ILE267/35.541907WRYS .-. -.-- ...

Heliport Services

Runway Information

Helipad H1

Dimensions: 45 x 45 ft. / 14 x 14 m
Surface: concrete, in good condition
Runway edge lights: PERI
Latitude: 42-00.104000N
Longitude: 083-56.280500W
Elevation: 793.0 ft.
Traffic pattern: leftleft

Heliport Ownership and Management from official FAA records

Ownership: Privately-owned
Owner: PROMEDICA HERRICK HOSPITAL
500 E. POTTAWATAMIE ST
TECUMSEH, MI 49286
Phone 517-265-0393
Manager: TAMMY GERMAN
500 E. POTTAWATAMIE ST
TECUMSEH, MI 49286
Phone 517-265-0393

Additional Remarks

A93 FBO FOR PROMEDICA AIR AND MOBILE LOCATED AT TOLEDO EXPRESS ARPT (KTOL).
OWNER DESIRES ARPT NOT BE CHARTED.
FOR CD CTC DETROIT APCH AT 800-499-8181.

Instrument Procedures

There are no published instrument procedures at 93MI.

Some nearby airports with instrument procedures:

KADG - Lenawee County Airport (10 nm SW)
KARB - Ann Arbor Municipal Airport (16 nm NE)
KDUH - Toledo Suburban Airport (20 nm SE)
KTTF - Custer Airport (23 nm E)
KYIP - Willow Run Airport (23 nm NE)
 
Loc | Ops | Rwys | IFR | FBO | Links
Com | Nav | Svcs | Stats | Notes
Aerial photo
No photo
 
Sectional chart

 
Airport distance calculator
Flying to Herrick Memorial Hospital Heliport? Find the distance to fly.

From to 93MI

Sunrise and sunset
Times for 07-Jul-2020
 Local
(UTC-4)
 Zulu
(UTC)
Morning civil twilight05:3509:35
Sunrise06:0910:09
Sunset21:1201:12
Evening civil twilight21:4601:46

Current date and time
Zulu (UTC)  08-Jul-2020 02:27:55
Local (UTC-4)  07-Jul-2020 22:27:55
 
METAR
KADG 
10nm SW 
080153Z AUTO 28004KT 10SM BKN070 BKN120 27/19 A2995 RMK AO2 SLP136 T02670194 TSNO
KARB 
16nm NE 
734-668-7173
080153Z AUTO 04004KT 10SM CLR 27/19 A2994 RMK AO2 LTG DSNT E AND SE SLP129 T02670194
KDUH 
21nm SE 
080216Z AUTO 32006KT 10SM SCT065 OVC080 28/20 A2996 RMK AO2 T02750199
TAF
KYIP 
23nm NE 
071720Z 0718/0818 27007KT P6SM SCT070 TEMPO 0720/0723 6SM -SHRA BKN070 FM080100 27003KT P6SM FEW070 FM080900 VRB03KT P6SM SCT100 FM081600 VRB05KT P6SM SCT060 BKN100
KTOL 
26nm S 
072158Z 0722/0818 VRB05KT P6SM VCTS SCT080CB FM080000 VRB05KT P6SM FEW250
KJXN 
28nm NW 
071732Z 0718/0818 24008KT P6SM VCTS SCT050CB SCT120 SCT250 TEMPO 0719/0723 VRB12G25KT 3SM TSRA OVC035CB FM072300 26008KT P6SM SCT040 FM080100 00000KT P6SM SKC FM081200 11003KT P6SM BKN045 FM081700 18006KT P6SM SCT070
NOTAMs
Click for the latest NOTAMs
NOTAMs are issued by the DoD/FAA and will open in a separate window not controlled by AirNav.

 

 
 

Would you like to see your business listed on this page?

 If your business provides an interesting product or service to pilots, flight crews, aircraft, or users of the Herrick Memorial Hospital Heliport, you should consider listing it here.  To start the listing process, click on the button below
 
Add a business
 

Other Pages about Herrick Memorial Hospital Heliport

Update a link
 
Copyright © AirNav, LLC. All rights reserved. Privacy Policy  Contact